Skip Navigation Links Skip Navigation Links

Current Weather

Lansing Muni, Lansing, Ill.

For information only: do not use for flight planning or navigation.
Latest weather
Observation time Friday, April 3, 2020 10:55 AM CDT
Local time Friday, April 3, 2020 11:13 AM CDT
Flight conditions Visual Meteorological Conditions
Winds
Wind direction South-Southeast (160°)
Wind speed 6 mph
Visibility 10 mi.
Sky condition
Ceiling unlimited
Sky clear
Temperature 61°F
Dewpoint 42°F
Altimeter 30.09 in.Hg
Derived measurements
Relative humidity 50%
Density altitude 712 ft.
Remarks
Fully automated report.
Automated weather observing station with precipitation discriminator.
METAR KIGQ 031555Z AUTO 16005KT 10SM CLR 16/06 A3009 RMK AO2 T01630058

Settings

Location code

InnerDrive.Weather 4.0.6770.0 Release CLR 4.0.30319.42000
Copyright ©2018 Inner Drive Technology. All rights reserved. Portions Copyright ©1986-2018 David Braverman.

Find weather

Site navigation


Skip Navigation Links

Place info

Page info

PayPal - The safer, easier way to pay online!

Return home.

Copyright ©2020 Inner Drive Technology. Purveyors of fine, hand-crafted computer software. Page printed 2020-04-03T16:13:03 UTC.